sensor_id;sensor_type;location;lat;lon;timestamp;pressure;altitude;pressure_sealevel;temperature;humidity
57572;BME280;44459;43.522;24.470;2023-04-02T00:00:36;99085.59;;;8.61;97.60
57572;BME280;44459;43.522;24.470;2023-04-02T00:03:21;99089.97;;;8.60;97.80
57572;BME280;44459;43.522;24.470;2023-04-02T00:05:47;99086.47;;;8.58;97.74
57572;BME280;44459;43.522;24.470;2023-04-02T00:08:28;99094.34;;;8.61;97.41
57572;BME280;44459;43.522;24.470;2023-04-02T00:11:03;99093.47;;;8.62;97.47
57572;BME280;44459;43.522;24.470;2023-04-02T00:15:58;99090.81;;;8.67;96.56
57572;BME280;44459;43.522;24.470;2023-04-02T00:18:25;99096.91;;;8.75;95.64
57572;BME280;44459;43.522;24.470;2023-04-02T00:21:30;99103.03;;;8.75;95.34
57572;BME280;44459;43.522;24.470;2023-04-02T00:23:59;99091.63;;;8.79;94.93
57572;BME280;44459;43.522;24.470;2023-04-02T00:26:35;99096.84;;;8.85;93.85
57572;BME280;44459;43.522;24.470;2023-04-02T00:29:03;99093.31;;;8.92;93.61
57572;BME280;44459;43.522;24.470;2023-04-02T00:31:29;99093.31;;;8.95;92.92
57572;BME280;44459;43.522;24.470;2023-04-02T00:33:56;99094.16;;;9.02;92.63
57572;BME280;44459;43.522;24.470;2023-04-02T00:36:24;99090.59;;;9.09;91.90
57572;BME280;44459;43.522;24.470;2023-04-02T00:38:52;99094.94;;;9.16;91.38
57572;BME280;44459;43.522;24.470;2023-04-02T00:41:24;99089.63;;;9.21;91.03
57572;BME280;44459;43.522;24.470;2023-04-02T00:43:51;99097.50;;;9.21;91.70
57572;BME280;44459;43.522;24.470;2023-04-02T00:46:20;99101.88;;;9.25;91.19
57572;BME280;44459;43.522;24.470;2023-04-02T00:49:07;99100.09;;;9.27;90.47
57572;BME280;44459;43.522;24.470;2023-04-02T00:51:37;99107.97;;;9.31;90.71
57572;BME280;44459;43.522;24.470;2023-04-02T00:54:09;99109.72;;;9.32;90.97
57572;BME280;44459;43.522;24.470;2023-04-02T00:56:44;99107.91;;;9.37;90.82
57572;BME280;44459;43.522;24.470;2023-04-02T00:59:42;99106.16;;;9.39;90.25
57572;BME280;44459;43.522;24.470;2023-04-02T01:15:39;99107.88;;;9.45;90.14
57572;BME280;44459;43.522;24.470;2023-04-02T01:21:16;99106.97;;;9.49;90.29
57572;BME280;44459;43.522;24.470;2023-04-02T01:23:53;99120.09;;;9.52;88.70
57572;BME280;44459;43.522;24.470;2023-04-02T01:26:45;99125.44;;;9.47;89.36
57572;BME280;44459;43.522;24.470;2023-04-02T01:29:14;99123.63;;;9.52;89.35
57572;BME280;44459;43.522;24.470;2023-04-02T01:31:41;99121.88;;;9.51;90.67
57572;BME280;44459;43.522;24.470;2023-04-02T01:34:12;99121.00;;;9.48;90.31
57572;BME280;44459;43.522;24.470;2023-04-02T01:45:00;99125.50;;;9.34;94.85
57572;BME280;44459;43.522;24.470;2023-04-02T01:47:27;99117.66;;;9.28;94.77
57572;BME280;44459;43.522;24.470;2023-04-02T01:50:03;99114.16;;;9.29;95.79
57572;BME280;44459;43.522;24.470;2023-04-02T01:52:38;99109.81;;;9.23;96.42
57572;BME280;44459;43.522;24.470;2023-04-02T01:55:10;99116.81;;;9.21;96.03
57572;BME280;44459;43.522;24.470;2023-04-02T01:57:41;99120.34;;;9.23;96.09
57572;BME280;44459;43.522;24.470;2023-04-02T02:00:10;99124.75;;;9.18;95.49
57572;BME280;44459;43.522;24.470;2023-04-02T02:02:39;99129.09;;;9.25;95.00
57572;BME280;44459;43.522;24.470;2023-04-02T02:05:12;99124.69;;;9.29;93.97
57572;BME280;44459;43.522;24.470;2023-04-02T02:07:38;99124.69;;;9.29;94.31
57572;BME280;44459;43.522;24.470;2023-04-02T02:10:09;99137.81;;;9.33;93.33
57572;BME280;44459;43.522;24.470;2023-04-02T02:12:38;99133.41;;;9.37;93.10
57572;BME280;44459;43.522;24.470;2023-04-02T02:15:16;99139.47;;;9.45;92.38
57572;BME280;44459;43.522;24.470;2023-04-02T02:17:42;99134.22;;;9.45;91.28
57572;BME280;44459;43.522;24.470;2023-04-02T02:20:08;99134.19;;;9.48;90.91
57572;BME280;44459;43.522;24.470;2023-04-02T02:22:42;99137.66;;;9.54;89.95
57572;BME280;44459;43.522;24.470;2023-04-02T02:25:27;99138.56;;;9.53;89.33
57572;BME280;44459;43.522;24.470;2023-04-02T02:30:27;99137.63;;;9.60;88.75
57572;BME280;44459;43.522;24.470;2023-04-02T02:33:05;99133.22;;;9.61;89.26
57572;BME280;44459;43.522;24.470;2023-04-02T02:41:01;99123.56;;;9.60;88.65
57572;BME280;44459;43.522;24.470;2023-04-02T02:43:28;99132.34;;;9.60;88.38
57572;BME280;44459;43.522;24.470;2023-04-02T02:45:55;99134.06;;;9.63;88.96
57572;BME280;44459;43.522;24.470;2023-04-02T02:48:24;99139.34;;;9.65;89.23
57572;BME280;44459;43.522;24.470;2023-04-02T02:50:51;99134.94;;;9.62;90.40
57572;BME280;44459;43.522;24.470;2023-04-02T02:53:20;99143.75;;;9.64;90.17
57572;BME280;44459;43.522;24.470;2023-04-02T02:55:50;99146.38;;;9.63;93.12
57572;BME280;44459;43.522;24.470;2023-04-02T02:58:27;99149.03;;;9.59;91.82
57572;BME280;44459;43.522;24.470;2023-04-02T03:00:55;99148.19;;;9.56;92.07
57572;BME280;44459;43.522;24.470;2023-04-02T03:03:24;99146.44;;;9.55;91.22
57572;BME280;44459;43.522;24.470;2023-04-02T03:05:59;99149.94;;;9.55;90.51
57572;BME280;44459;43.522;24.470;2023-04-02T03:08:45;99146.44;;;9.55;90.46
57572;BME280;44459;43.522;24.470;2023-04-02T03:11:38;99151.66;;;9.59;90.13
57572;BME280;44459;43.522;24.470;2023-04-02T03:14:11;99142.91;;;9.57;90.13
57572;BME280;44459;43.522;24.470;2023-04-02T03:16:43;99144.63;;;9.63;89.89
57572;BME280;44459;43.522;24.470;2023-04-02T03:19:27;99144.59;;;9.66;89.55
57572;BME280;44459;43.522;24.470;2023-04-02T03:22:30;99149.84;;;9.69;88.85
57572;BME280;44459;43.522;24.470;2023-04-02T03:25:05;99143.72;;;9.67;89.02
57572;BME280;44459;43.522;24.470;2023-04-02T03:27:39;99146.31;;;9.72;88.46
57572;BME280;44459;43.522;24.470;2023-04-02T03:30:28;99140.16;;;9.71;88.29
57572;BME280;44459;43.522;24.470;2023-04-02T03:33:04;99144.50;;;9.77;88.56
57572;BME280;44459;43.522;24.470;2023-04-02T03:38:12;99152.41;;;9.77;86.99
57572;BME280;44459;43.522;24.470;2023-04-02T03:40:46;99155.06;;;9.78;86.72
57572;BME280;44459;43.522;24.470;2023-04-02T03:43:33;99155.06;;;9.75;87.12
57572;BME280;44459;43.522;24.470;2023-04-02T03:48:48;99155.94;;;9.77;85.55
57572;BME280;44459;43.522;24.470;2023-04-02T03:51:43;99155.06;;;9.75;86.09
57572;BME280;44459;43.522;24.470;2023-04-02T03:54:14;99156.88;;;9.72;85.94
57572;BME280;44459;43.522;24.470;2023-04-02T03:56:41;99146.31;;;9.72;85.49
57572;BME280;44459;43.522;24.470;2023-04-02T03:59:14;99155.97;;;9.71;85.38
57572;BME280;44459;43.522;24.470;2023-04-02T04:01:47;99148.09;;;9.67;85.34
57572;BME280;44459;43.522;24.470;2023-04-02T04:04:17;99156.03;;;9.62;86.17
57572;BME280;44459;43.522;24.470;2023-04-02T04:06:45;99154.28;;;9.63;85.24
57572;BME280;44459;43.522;24.470;2023-04-02T04:09:31;99163.03;;;9.66;85.61
57572;BME280;44459;43.522;24.470;2023-04-02T04:14:50;99165.63;;;9.74;85.13
57572;BME280;44459;43.522;24.470;2023-04-02T04:17:32;99170.84;;;9.77;84.12
57572;BME280;44459;43.522;24.470;2023-04-02T04:20:21;99164.72;;;9.78;84.45
57572;BME280;44459;43.522;24.470;2023-04-02T04:22:49;99175.25;;;9.76;84.43
57572;BME280;44459;43.522;24.470;2023-04-02T04:25:29;99168.25;;;9.75;83.98
57572;BME280;44459;43.522;24.470;2023-04-02T04:28:09;99179.63;;;9.76;83.30
57572;BME280;44459;43.522;24.470;2023-04-02T04:30:59;99184.84;;;9.83;83.59
57572;BME280;44459;43.522;24.470;2023-04-02T04:33:31;99174.31;;;9.83;83.86
57572;BME280;44459;43.522;24.470;2023-04-02T04:36:05;99178.72;;;9.83;84.30
57572;BME280;44459;43.522;24.470;2023-04-02T04:38:39;99183.06;;;9.88;83.99
57572;BME280;44459;43.522;24.470;2023-04-02T04:41:14;99183.94;;;9.86;84.47
57572;BME280;44459;43.522;24.470;2023-04-02T04:43:47;99190.06;;;9.89;84.94
57572;BME280;44459;43.522;24.470;2023-04-02T04:46:19;99186.59;;;9.87;85.12
57572;BME280;44459;43.522;24.470;2023-04-02T04:49:22;99198.00;;;9.86;84.64
57572;BME280;44459;43.522;24.470;2023-04-02T04:51:57;99197.16;;;9.84;84.91
57572;BME280;44459;43.522;24.470;2023-04-02T04:54:27;99199.78;;;9.84;85.06
57572;BME280;44459;43.522;24.470;2023-04-02T04:56:56;99200.66;;;9.83;85.54
57572;BME280;44459;43.522;24.470;2023-04-02T04:59:46;99208.59;;;9.82;86.28
57572;BME280;44459;43.522;24.470;2023-04-02T05:02:23;99212.94;;;9.86;86.09
57572;BME280;44459;43.522;24.470;2023-04-02T05:04:51;99226.22;;;9.78;86.33
57572;BME280;44459;43.522;24.470;2023-04-02T05:07:21;99220.94;;;9.78;86.17
57572;BME280;44459;43.522;24.470;2023-04-02T05:12:34;99226.19;;;9.81;85.30
57572;BME280;44459;43.522;24.470;2023-04-02T05:17:43;99235.78;;;9.91;86.03
57572;BME280;44459;43.522;24.470;2023-04-02T05:20:23;99227.00;;;9.86;84.71
57572;BME280;44459;43.522;24.470;2023-04-02T05:23:04;99250.75;;;9.85;85.39
57572;BME280;44459;43.522;24.470;2023-04-02T05:25:35;99239.31;;;9.86;85.06
57572;BME280;44459;43.522;24.470;2023-04-02T05:31:01;99248.06;;;9.91;85.44
57572;BME280;44459;43.522;24.470;2023-04-02T05:33:29;99255.09;;;9.90;85.76
57572;BME280;44459;43.522;24.470;2023-04-02T05:36:20;99255.03;;;10.01;86.49
57572;BME280;44459;43.522;24.470;2023-04-02T05:38:48;99252.34;;;10.04;85.68
57572;BME280;44459;43.522;24.470;2023-04-02T05:41:25;99261.09;;;10.10;86.24
57572;BME280;44459;43.522;24.470;2023-04-02T05:44:20;99255.78;;;10.13;85.50
57572;BME280;44459;43.522;24.470;2023-04-02T05:46:48;99264.56;;;10.22;85.99
57572;BME280;44459;43.522;24.470;2023-04-02T05:49:21;99254.78;;;10.37;84.33
57572;BME280;44459;43.522;24.470;2023-04-02T05:51:51;99252.09;;;10.40;83.83
57572;BME280;44459;43.522;24.470;2023-04-02T05:54:38;99267.94;;;10.40;84.62
57572;BME280;44459;43.522;24.470;2023-04-02T05:57:22;99269.66;;;10.44;83.58
57572;BME280;44459;43.522;24.470;2023-04-02T05:59:53;99275.75;;;10.51;83.61
57572;BME280;44459;43.522;24.470;2023-04-02T06:02:32;99272.13;;;10.59;82.10
57572;BME280;44459;43.522;24.470;2023-04-02T06:07:33;99270.28;;;10.69;80.05
57572;BME280;44459;43.522;24.470;2023-04-02T06:10:17;99272.84;;;10.77;79.86
57572;BME280;44459;43.522;24.470;2023-04-02T06:12:50;99276.31;;;10.80;78.97
57572;BME280;44459;43.522;24.470;2023-04-02T06:15:19;99281.41;;;10.98;79.41
57572;BME280;44459;43.522;24.470;2023-04-02T06:17:47;99285.56;;;11.21;77.70
57572;BME280;44459;43.522;24.470;2023-04-02T06:20:15;99287.00;;;11.47;76.98
57572;BME280;44459;43.522;24.470;2023-04-02T06:22:43;99291.06;;;11.76;76.90
57572;BME280;44459;43.522;24.470;2023-04-02T06:25:28;99295.19;;;11.95;77.85
57572;BME280;44459;43.522;24.470;2023-04-02T06:27:57;99292.03;;;12.27;75.19
57572;BME280;44459;43.522;24.470;2023-04-02T06:30:36;99291.81;;;12.40;72.71
57572;BME280;44459;43.522;24.470;2023-04-02T06:33:03;99302.16;;;12.55;72.40
57572;BME280;44459;43.522;24.470;2023-04-02T06:35:29;99302.75;;;12.73;72.74
57572;BME280;44459;43.522;24.470;2023-04-02T06:37:57;99308.31;;;13.06;72.02
57572;BME280;44459;43.522;24.470;2023-04-02T06:43:06;99306.72;;;13.44;71.14
57572;BME280;44459;43.522;24.470;2023-04-02T06:45:38;99314.44;;;13.56;68.80
57572;BME280;44459;43.522;24.470;2023-04-02T06:48:14;99301.94;;;13.61;68.25
57572;BME280;44459;43.522;24.470;2023-04-02T06:50:47;99301.69;;;13.72;69.89
57572;BME280;44459;43.522;24.470;2023-04-02T06:53:24;99296.91;;;13.89;67.52
57572;BME280;44459;43.522;24.470;2023-04-02T06:55:57;99295.97;;;13.91;67.29
57572;BME280;44459;43.522;24.470;2023-04-02T06:58:24;99300.59;;;13.82;67.80
57572;BME280;44459;43.522;24.470;2023-04-02T07:00:50;99306.19;;;13.70;68.31
57572;BME280;44459;43.522;24.470;2023-04-02T07:03:28;99309.28;;;13.47;67.63
57572;BME280;44459;43.522;24.470;2023-04-02T07:05:55;99317.47;;;13.36;69.01
57572;BME280;44459;43.522;24.470;2023-04-02T07:08:21;99303.72;;;13.18;70.64
57572;BME280;44459;43.522;24.470;2023-04-02T07:10:47;99318.13;;;13.01;70.89
57572;BME280;44459;43.522;24.470;2023-04-02T07:13:23;99313.72;;;13.00;71.55
57572;BME280;44459;43.522;24.470;2023-04-02T07:15:53;99322.69;;;12.93;69.93
57572;BME280;44459;43.522;24.470;2023-04-02T07:18:30;99319.22;;;12.88;69.98
57572;BME280;44459;43.522;24.470;2023-04-02T07:20:57;99321.72;;;12.97;71.95
57572;BME280;44459;43.522;24.470;2023-04-02T07:23:23;99335.19;;;13.34;72.09
57572;BME280;44459;43.522;24.470;2023-04-02T07:25:50;99331.50;;;13.84;68.74
57572;BME280;44459;43.522;24.470;2023-04-02T07:28:16;99330.59;;;14.24;67.09
57572;BME280;44459;43.522;24.470;2023-04-02T07:30:43;99328.91;;;14.58;67.36
57572;BME280;44459;43.522;24.470;2023-04-02T07:33:13;99329.59;;;15.01;64.68
57572;BME280;44459;43.522;24.470;2023-04-02T07:35:38;99342.09;;;15.30;63.91
57572;BME280;44459;43.522;24.470;2023-04-02T07:38:04;99333.78;;;15.42;64.05
57572;BME280;44459;43.522;24.470;2023-04-02T07:40:30;99332.31;;;15.63;61.73
57572;BME280;44459;43.522;24.470;2023-04-02T07:42:55;99343.31;;;15.82;61.62
57572;BME280;44459;43.522;24.470;2023-04-02T07:45:21;99340.28;;;15.94;61.68
57572;BME280;44459;43.522;24.470;2023-04-02T07:47:46;99333.41;;;16.16;60.84
57572;BME280;44459;43.522;24.470;2023-04-02T07:50:11;99333.88;;;16.29;61.46
57572;BME280;44459;43.522;24.470;2023-04-02T07:52:41;99329.53;;;16.26;61.59
57572;BME280;44459;43.522;24.470;2023-04-02T07:55:11;99334.50;;;16.09;60.10
57572;BME280;44459;43.522;24.470;2023-04-02T07:57:38;99325.72;;;16.05;61.03
57572;BME280;44459;43.522;24.470;2023-04-02T08:00:10;99328.78;;;16.21;60.89
57572;BME280;44459;43.522;24.470;2023-04-02T08:02:36;99333.94;;;15.98;59.47
57572;BME280;44459;43.522;24.470;2023-04-02T08:05:02;99329.47;;;16.00;61.28
57572;BME280;44459;43.522;24.470;2023-04-02T08:07:27;99323.53;;;16.20;62.31
57572;BME280;44459;43.522;24.470;2023-04-02T08:09:53;99325.16;;;16.24;62.40
57572;BME280;44459;43.522;24.470;2023-04-02T08:12:18;99320.69;;;15.96;61.89
57572;BME280;44459;43.522;24.470;2023-04-02T08:14:43;99325.09;;;15.68;63.20
57572;BME280;44459;43.522;24.470;2023-04-02T08:17:09;99327.41;;;15.49;64.92
57572;BME280;44459;43.522;24.470;2023-04-02T08:19:35;99314.16;;;15.46;64.42
57572;BME280;44459;43.522;24.470;2023-04-02T08:22:00;99314.53;;;15.33;65.15
57572;BME280;44459;43.522;24.470;2023-04-02T08:24:25;99307.19;;;15.10;64.68
57572;BME280;44459;43.522;24.470;2023-04-02T08:26:51;99322.81;;;15.22;64.69
57572;BME280;44459;43.522;24.470;2023-04-02T08:29:18;99324.69;;;15.19;65.07
57572;BME280;44459;43.522;24.470;2023-04-02T08:31:44;99313.88;;;15.25;67.61
57572;BME280;44459;43.522;24.470;2023-04-02T08:34:09;99334.97;;;15.31;65.80
57572;BME280;44459;43.522;24.470;2023-04-02T08:36:37;99328.50;;;15.41;66.38
57572;BME280;44459;43.522;24.470;2023-04-02T08:39:05;99327.44;;;15.48;64.15
57572;BME280;44459;43.522;24.470;2023-04-02T08:41:57;99336.25;;;15.50;63.89
57572;BME280;44459;43.522;24.470;2023-04-02T08:47:31;99349.25;;;15.60;62.55
57572;BME280;44459;43.522;24.470;2023-04-02T08:50:05;99346.38;;;15.68;63.53
57572;BME280;44459;43.522;24.470;2023-04-02T08:52:36;99342.84;;;15.68;62.12
57572;BME280;44459;43.522;24.470;2023-04-02T08:55:04;99350.84;;;15.66;62.77
57572;BME280;44459;43.522;24.470;2023-04-02T08:57:53;99355.25;;;15.69;61.55
57572;BME280;44459;43.522;24.470;2023-04-02T09:00:36;99335.69;;;15.70;62.52
57572;BME280;44459;43.522;24.470;2023-04-02T09:03:17;99364.69;;;15.79;60.92
57572;BME280;44459;43.522;24.470;2023-04-02T09:05:44;99374.97;;;15.91;59.95
57572;BME280;44459;43.522;24.470;2023-04-02T09:08:17;99376.75;;;15.90;58.50
57572;BME280;44459;43.522;24.470;2023-04-02T09:10:52;99364.00;;;15.72;59.98
57572;BME280;44459;43.522;24.470;2023-04-02T09:13:25;99375.03;;;15.89;59.98
57572;BME280;44459;43.522;24.470;2023-04-02T09:16:21;99378.81;;;15.81;57.71
57572;BME280;44459;43.522;24.470;2023-04-02T09:18:51;99360.31;;;15.76;58.77
57572;BME280;44459;43.522;24.470;2023-04-02T09:23:47;99356.31;;;15.92;58.71
57572;BME280;44459;43.522;24.470;2023-04-02T09:26:32;99362.41;;;15.96;57.21
57572;BME280;44459;43.522;24.470;2023-04-02T09:31:34;99338.56;;;15.93;57.45
57572;BME280;44459;43.522;24.470;2023-04-02T09:34:31;99355.94;;;16.04;56.29
57572;BME280;44459;43.522;24.470;2023-04-02T09:37:20;99353.69;;;16.20;57.30
57572;BME280;44459;43.522;24.470;2023-04-02T09:39:50;99359.78;;;16.24;53.53
57572;BME280;44459;43.522;24.470;2023-04-02T09:42:33;99360.38;;;16.33;56.01
57572;BME280;44459;43.522;24.470;2023-04-02T09:47:42;99359.72;;;16.53;53.31
57572;BME280;44459;43.522;24.470;2023-04-02T09:52:45;99353.63;;;16.77;52.51
57572;BME280;44459;43.522;24.470;2023-04-02T09:57:39;99363.81;;;16.92;51.64
57572;BME280;44459;43.522;24.470;2023-04-02T10:00:22;99349.63;;;16.90;52.03
57572;BME280;44459;43.522;24.470;2023-04-02T10:03:04;99357.50;;;16.95;50.99
57572;BME280;44459;43.522;24.470;2023-04-02T10:05:31;99358.38;;;16.95;52.02
57572;BME280;44459;43.522;24.470;2023-04-02T10:08:27;99355.66;;;16.97;51.30
57572;BME280;44459;43.522;24.470;2023-04-02T10:10:55;99356.25;;;17.05;51.73
57572;BME280;44459;43.522;24.470;2023-04-02T10:18:48;99359.44;;;17.16;52.83
57572;BME280;44459;43.522;24.470;2023-04-02T10:21:25;99350.69;;;17.37;51.14
57572;BME280;44459;43.522;24.470;2023-04-02T10:23:52;99352.13;;;17.46;49.00
57572;BME280;44459;43.522;24.470;2023-04-02T10:26:28;99352.09;;;17.47;48.56
57572;BME280;44459;43.522;24.470;2023-04-02T10:40:34;99343.81;;;17.55;49.65
57572;BME280;44459;43.522;24.470;2023-04-02T10:48:42;99334.13;;;18.00;49.03
57572;BME280;44459;43.522;24.470;2023-04-02T10:56:42;99341.75;;;18.09;48.28
57572;BME280;44459;43.522;24.470;2023-04-02T10:59:29;99346.53;;;18.01;46.89
57572;BME280;44459;43.522;24.470;2023-04-02T11:02:00;99345.22;;;17.90;46.95
57572;BME280;44459;43.522;24.470;2023-04-02T11:04:31;99337.19;;;17.90;46.89
57572;BME280;44459;43.522;24.470;2023-04-02T11:07:04;99346.75;;;17.95;47.55
57572;BME280;44459;43.522;24.470;2023-04-02T11:09:35;99341.31;;;17.98;47.06
57572;BME280;44459;43.522;24.470;2023-04-02T11:12:04;99341.19;;;18.01;46.62
57572;BME280;44459;43.522;24.470;2023-04-02T11:14:31;99351.22;;;17.95;47.62
57572;BME280;44459;43.522;24.470;2023-04-02T11:16:59;99341.91;;;17.83;46.33
57572;BME280;44459;43.522;24.470;2023-04-02T11:19:29;99339.59;;;17.97;48.43
57572;BME280;44459;43.522;24.470;2023-04-02T11:22:17;99334.41;;;17.93;46.57
57572;BME280;44459;43.522;24.470;2023-04-02T11:24:55;99330.09;;;17.89;46.92
57572;BME280;44459;43.522;24.470;2023-04-02T11:27:31;99330.84;;;17.92;46.47
57572;BME280;44459;43.522;24.470;2023-04-02T11:30:25;99339.59;;;17.97;47.19
57572;BME280;44459;43.522;24.470;2023-04-02T11:32:51;99335.53;;;17.87;47.54
57572;BME280;44459;43.522;24.470;2023-04-02T11:37:54;99345.19;;;17.67;47.53
57572;BME280;44459;43.522;24.470;2023-04-02T11:40:40;99333.78;;;17.63;48.28
57572;BME280;44459;43.522;24.470;2023-04-02T11:48:44;99329.94;;;17.93;45.72
57572;BME280;44459;43.522;24.470;2023-04-02T11:51:46;99335.53;;;17.87;46.24
57572;BME280;44459;43.522;24.470;2023-04-02T11:54:21;99334.56;;;17.88;46.23
57572;BME280;44459;43.522;24.470;2023-04-02T11:57:08;99337.19;;;17.67;47.63
57572;BME280;44459;43.522;24.470;2023-04-02T12:00:00;99336.38;;;17.65;48.47
57572;BME280;44459;43.522;24.470;2023-04-02T12:05:26;99321.47;;;17.82;47.15
57572;BME280;44459;43.522;24.470;2023-04-02T12:10:59;99330.75;;;17.95;47.57
57572;BME280;44459;43.522;24.470;2023-04-02T12:16:12;99326.56;;;17.88;47.11
57572;BME280;44459;43.522;24.470;2023-04-02T12:18:46;99326.00;;;17.80;47.70
57572;BME280;44459;43.522;24.470;2023-04-02T12:21:17;99319.91;;;17.77;47.04
57572;BME280;44459;43.522;24.470;2023-04-02T12:23:47;99324.41;;;17.75;46.44
57572;BME280;44459;43.522;24.470;2023-04-02T12:26:42;99323.34;;;17.80;47.75
57572;BME280;44459;43.522;24.470;2023-04-02T12:31:45;99321.69;;;17.76;47.89
57572;BME280;44459;43.522;24.470;2023-04-02T12:34:14;99320.50;;;17.60;47.87
57572;BME280;44459;43.522;24.470;2023-04-02T12:37:03;99312.09;;;17.46;48.48
57572;BME280;44459;43.522;24.470;2023-04-02T12:39:32;99320.28;;;17.41;46.79
57572;BME280;44459;43.522;24.470;2023-04-02T12:41:58;99324.28;;;17.53;45.75
57572;BME280;44459;43.522;24.470;2023-04-02T12:44:26;99330.44;;;17.56;46.19
57572;BME280;44459;43.522;24.470;2023-04-02T12:46:53;99324.00;;;17.62;46.87
57572;BME280;44459;43.522;24.470;2023-04-02T12:49:35;99323.34;;;17.55;48.09
57572;BME280;44459;43.522;24.470;2023-04-02T12:52:07;99322.25;;;17.61;47.51
57572;BME280;44459;43.522;24.470;2023-04-02T12:57:31;99313.41;;;17.84;46.80
57572;BME280;44459;43.522;24.470;2023-04-02T13:02:29;99326.16;;;17.76;46.91
57572;BME280;44459;43.522;24.470;2023-04-02T13:04:58;99315.19;;;17.83;46.61
57572;BME280;44459;43.522;24.470;2023-04-02T13:07:31;99318.97;;;18.01;46.40
57572;BME280;44459;43.522;24.470;2023-04-02T13:09:59;99325.22;;;18.45;45.70
57572;BME280;44459;43.522;24.470;2023-04-02T13:12:34;99325.69;;;18.56;45.60
57572;BME280;44459;43.522;24.470;2023-04-02T13:15:03;99314.94;;;18.99;45.38
57572;BME280;44459;43.522;24.470;2023-04-02T13:17:44;99315.75;;;19.62;44.92
57572;BME280;44459;43.522;24.470;2023-04-02T13:22:52;99315.53;;;20.79;41.10
57572;BME280;44459;43.522;24.470;2023-04-02T13:25:17;99312.44;;;20.86;41.18
57572;BME280;44459;43.522;24.470;2023-04-02T13:27:44;99317.03;;;20.84;41.99
57572;BME280;44459;43.522;24.470;2023-04-02T13:30:17;99312.44;;;21.03;41.75
57572;BME280;44459;43.522;24.470;2023-04-02T13:32:44;99317.53;;;21.09;42.20
57572;BME280;44459;43.522;24.470;2023-04-02T13:35:10;99318.28;;;20.23;41.46
57572;BME280;44459;43.522;24.470;2023-04-02T13:37:35;99306.53;;;19.08;43.91
57572;BME280;44459;43.522;24.470;2023-04-02T13:40:01;99324.06;;;18.74;44.11
57572;BME280;44459;43.522;24.470;2023-04-02T13:42:27;99319.59;;;18.74;44.88
57572;BME280;44459;43.522;24.470;2023-04-02T13:44:53;99318.94;;;19.09;43.52
57572;BME280;44459;43.522;24.470;2023-04-02T13:47:18;99317.50;;;19.23;44.55
57572;BME280;44459;43.522;24.470;2023-04-02T13:49:43;99307.03;;;19.37;44.66
57572;BME280;44459;43.522;24.470;2023-04-02T13:52:13;99311.88;;;19.49;44.89
57572;BME280;44459;43.522;24.470;2023-04-02T13:54:48;99311.88;;;19.49;45.29
57572;BME280;44459;43.522;24.470;2023-04-02T13:57:15;99314.75;;;19.44;44.29
57572;BME280;44459;43.522;24.470;2023-04-02T13:59:41;99310.25;;;19.65;44.75
57572;BME280;44459;43.522;24.470;2023-04-02T14:02:16;99310.63;;;19.76;43.83
57572;BME280;44459;43.522;24.470;2023-04-02T14:04:45;99308.13;;;19.92;44.27
57572;BME280;44459;43.522;24.470;2023-04-02T14:14:16;99318.09;;;19.70;40.38
57572;BME280;44459;43.522;24.470;2023-04-02T14:16:39;99303.91;;;19.68;40.61
57572;BME280;44459;43.522;24.470;2023-04-02T14:29:52;99306.59;;;19.47;41.67
57572;BME280;44459;43.522;24.470;2023-04-02T14:38:05;99307.13;;;19.55;41.89
57572;BME280;44459;43.522;24.470;2023-04-02T14:43:25;99300.41;;;19.47;41.61
57572;BME280;44459;43.522;24.470;2023-04-02T14:45:57;99298.03;;;19.39;41.12
57572;BME280;44459;43.522;24.470;2023-04-02T14:51:36;99295.38;;;19.19;41.92
57572;BME280;44459;43.522;24.470;2023-04-02T14:54:30;99275.94;;;19.14;41.67
57572;BME280;44459;43.522;24.470;2023-04-02T14:57:21;99292.75;;;19.18;41.83
57572;BME280;44459;43.522;24.470;2023-04-02T15:02:41;99296.56;;;19.12;42.90
57572;BME280;44459;43.522;24.470;2023-04-02T15:05:16;99297.50;;;19.11;41.98
57572;BME280;44459;43.522;24.470;2023-04-02T15:07:50;99303.03;;;18.86;44.23
57572;BME280;44459;43.522;24.470;2023-04-02T15:10:29;99309.84;;;18.93;43.70
57572;BME280;44459;43.522;24.470;2023-04-02T15:12:57;99305.75;;;18.85;42.69
57572;BME280;44459;43.522;24.470;2023-04-02T15:15:42;99312.22;;;18.79;41.66
57572;BME280;44459;43.522;24.470;2023-04-02T15:18:14;99306.63;;;18.85;42.19
57572;BME280;44459;43.522;24.470;2023-04-02T15:21:09;99313.66;;;18.88;42.51
57572;BME280;44459;43.522;24.470;2023-04-02T15:34:47;99320.22;;;18.14;42.32
57572;BME280;44459;43.522;24.470;2023-04-02T15:37:32;99325.00;;;18.06;42.78
57572;BME280;44459;43.522;24.470;2023-04-02T15:51:19;99336.59;;;17.58;44.81
57572;BME280;44459;43.522;24.470;2023-04-02T15:56:29;99332.03;;;17.36;45.68
57572;BME280;44459;43.522;24.470;2023-04-02T16:01:44;99334.41;;;17.20;46.28
57572;BME280;44459;43.522;24.470;2023-04-02T16:04:29;99343.44;;;17.16;47.53
57572;BME280;44459;43.522;24.470;2023-04-02T16:09:59;99350.31;;;16.97;48.78
57572;BME280;44459;43.522;24.470;2023-04-02T16:12:29;99343.28;;;16.94;49.64
57572;BME280;44459;43.522;24.470;2023-04-02T16:15:43;99354.03;;;16.93;49.11
57572;BME280;44459;43.522;24.470;2023-04-02T16:17:55;99366.94;;;16.79;49.75
57572;BME280;44459;43.522;24.470;2023-04-02T16:20:25;99359.22;;;16.70;50.50
57572;BME280;44459;43.522;24.470;2023-04-02T16:23:00;99362.09;;;16.64;50.92
57572;BME280;44459;43.522;24.470;2023-04-02T16:25:31;99361.59;;;16.51;51.82
57572;BME280;44459;43.522;24.470;2023-04-02T16:31:34;99362.91;;;16.08;52.41
57572;BME280;44459;43.522;24.470;2023-04-02T16:37:14;99367.91;;;15.90;53.41
57572;BME280;44459;43.522;24.470;2023-04-02T16:42:30;99364.94;;;15.70;54.95
57572;BME280;44459;43.522;24.470;2023-04-02T16:56:15;99370.22;;;15.39;54.43